ADDS METAR Data INFO
IDs: Format: Raw Decoded Include TAF

Data at: 1126 UTC 17 Jul 2018

KA08 171115Z AUTO 28006KT 7SM OVC003 23/23 A3004 RMK AO2 T02250225
KA08 171055Z AUTO 25003KT 7SM OVC003 22/22 A3003 RMK AO2 T02230223
KA08 171035Z AUTO 24003KT 7SM OVC003 22/22 A3003 RMK AO2 T02230223
KA08 171015Z AUTO 00000KT 7SM OVC003 22/22 A3003 RMK AO2 T02230223
KA08 170955Z AUTO 00000KT 7SM OVC003 22/22 A3003 RMK AO2 T02230223
KA08 170935Z AUTO 21005KT 5SM BR OVC003 22/22 A3003 RMK AO2 T02220222
KA08 170915Z AUTO 22004KT 5SM BR OVC003 22/22 A3002 RMK AO2 T02220222
KA08 170855Z AUTO 00000KT 7SM OVC003 22/22 A3002 RMK AO2 T02230223
KA08 170835Z AUTO 00000KT 7SM OVC003 22/22 A3002 RMK AO2 T02230223
KA08 170815Z AUTO 00000KT 7SM BKN003 22/22 A3001 RMK AO2 T02230223
KA08 170755Z AUTO 22004KT 7SM BKN003 22/22 A3001 RMK AO2 T02230223
KA08 170735Z AUTO 23003KT 10SM OVC005 23/23 A3002 RMK AO2 T02250225
KA08 170715Z AUTO 20009KT 10SM OVC005 23/23 A3001 RMK AO2 T02250225
KA08 170655Z AUTO 20010KT 10SM BKN005 23/23 A3001 RMK AO2 T02250225
KA08 170635Z AUTO 19004KT 7SM SCT007 22/22 A3001 RMK AO2 T02230223
KA08 170615Z AUTO 17003KT 7SM CLR 23/23 A3000 RMK AO2 T02250225
KA08 170555Z AUTO 15004KT 10SM CLR 23/23 A3001 RMK AO2 T02250225 10287 20225 403150225
KA08 170535Z AUTO 00000KT 10SM CLR 23/23 A3000 RMK AO2 T02260226
KA08 170515Z AUTO 00000KT 10SM CLR 23/23 A3002 RMK AO2 T02280228
KA08 170455Z AUTO 00000KT 10SM CLR 23/23 A3002 RMK AO2 T02300230
KA08 170435Z AUTO 00000KT 10SM CLR 23/23 A3002 RMK AO2 T02300230
KA08 170415Z AUTO 00000KT 10SM CLR 23/23 A3002 RMK AO2 T02300230
KA08 170355Z AUTO 00000KT 10SM CLR 23/23 A3002 RMK AO2 T02300230
KA08 170335Z AUTO 00000KT 10SM CLR 23/23 A3003 RMK AO2 T02310231
KA08 170315Z AUTO 00000KT 10SM CLR 24/24 A3004 RMK AO2 T02350235
KA08 170255Z AUTO 00000KT 10SM CLR 24/23 A3004 RMK AO2 T02350234
KA08 170235Z AUTO 30003KT 10SM CLR 24/23 A3005 RMK AO2 T02350232
KA08 170215Z AUTO 00000KT 10SM CLR 24/23 A3004 RMK AO2 T02360232
KA08 170155Z AUTO 23003KT 10SM SCT012 SCT060 BKN120 24/23 A3004 RMK AO2 T02390230
KA08 170135Z AUTO 00000KT 10SM BKN110 24/23 A3002 RMK AO2 T02420229
KA08 170115Z AUTO 25006KT 1 3/4SM -RA SCT012 SCT120 25/23 A3002 RMK AO2 VIS 1/4V5 T02450230
KA08 170055Z AUTO 10SM SCT085 25/22 A2999 RMK AO2 T02530220
KA08 170035Z AUTO 10SM -DZ SCT060 SCT080 26/23 A2998 RMK AO2 T02600225
KA08 170015Z AUTO 28006G16KT 10SM SCT024 SCT031 27/24 A2998 RMK AO2 T02670238
KA08 162355Z AUTO 26005KT 10SM SCT031 BKN036 BKN044 29/26 A2997 RMK AO2 T02880260 10315 20278
KA08 162335Z AUTO 22003KT 10SM SCT036 BKN044 29/26 A2997 RMK AO2 T02900263
KA08 162315Z AUTO 20004KT 10SM CLR 29/26 A2997 RMK AO2 T02930260
KA08 162255Z AUTO 19003KT 10SM CLR 30/26 A2997 RMK AO2 T02950259
KA08 162235Z AUTO 21004KT 10SM CLR 30/26 A2998 RMK AO2 T02960259
KA08 162215Z AUTO 19003KT 10SM SCT031 SCT037 30/25 A2997 RMK AO2 T03040252
KA08 162155Z AUTO 18006KT 10SM SCT033 30/25 A2998 RMK AO2 T03040250
KA08 162135Z AUTO 18006KT 10SM SCT026 31/25 A2998 RMK AO2 T03080250
KA08 162115Z AUTO 19003KT 10SM SCT026 SCT031 31/25 A2997 RMK AO2 T03100250
KA08 162055Z AUTO 18003KT 10SM SCT024 SCT032 31/25 A2997 RMK AO2 T03070248
KA08 162035Z AUTO 00000KT 10SM SCT024 BKN032 BKN040 30/25 A2998 RMK AO2 T03000250
KA08 162015Z AUTO 00000KT 10SM SCT024 SCT030 BKN038 30/25 A2999 RMK AO2 T02970248
KA08 161955Z AUTO 11004KT 10SM SCT022 SCT036 BKN045 31/25 A2998 RMK AO2 T03120253
KA08 161935Z AUTO 08003KT 10SM BKN022 BKN047 30/25 A2999 RMK AO2 T03030252
KA08 161915Z AUTO 16004KT 10SM SCT020 30/25 A3000 RMK AO2 T02970253
KA08 161855Z AUTO 15005KT 10SM CLR 29/25 A3002 RMK AO2 T02910252
KA08 161835Z AUTO 13004KT 10SM SCT046 SCT060 29/25 A3003 RMK AO2 T02850251
KA08 161815Z AUTO 00000KT 10SM SCT046 SCT060 28/25 A3005 RMK AO2 T02810249
KA08 161755Z AUTO 00000KT 10SM SCT017 28/24 A3006 RMK AO2 60017 T02770244 10278 20231
KA08 161735Z AUTO 13003KT 10SM SCT017 28/25 A3006 RMK AO2 T02760249
KA08 161715Z AUTO 00000KT 10SM BKN017 27/24 A3006 RMK AO2 T02720244
KA08 161655Z AUTO 00000KT 10SM OVC015 27/24 A3007 RMK AO2 T02730242
KA08 161635Z AUTO 00000KT 10SM OVC015 27/24 A3006 RMK AO2 T02680237
KA08 161615Z AUTO 00000KT 10SM BKN015 27/24 A3007 RMK AO2 T02670236
KA08 161555Z AUTO 00000KT 10SM SCT011 27/24 A3007 RMK AO2 T02660244
KA08 161535Z AUTO 13003KT 10SM SCT009 26/24 A3007 RMK AO2 T02590243
KA08 161515Z AUTO 00000KT 10SM SCT009 BKN012 25/24 A3007 RMK AO2 T02510239
KA08 161455Z AUTO 26003KT 10SM BKN009 BKN012 25/25 A3007 RMK AO2 60017 T02500245
KA08 161435Z AUTO 29004KT 10SM -RA BKN009 25/24 A3008 RMK AO2 T02450243
KA08 161415Z AUTO 26004KT 10SM -DZ BKN007 BKN020 BKN032 25/25 A3007 RMK AO2 T02460245
KA08 161355Z AUTO 00000KT 7SM RA BKN005 BKN011 OVC032 24/24 A3007 RMK AO2 P0017 T02420242
KA08 161335Z AUTO 00000KT 2SM RA BKN003 OVC050 24/24 A3007 RMK AO2 P0016 T02380238
KA08 161315Z AUTO 25004KT 4SM +RA SCT060 BKN085 BKN100 24/24 A3007 RMK AO2 P0002 T02390239
KA08 161255Z AUTO 00000KT 4SM BR SCT003 SCT050 BKN075 24/24 A3006 RMK AO2 T02360236
KA08 161235Z AUTO 00000KT 4SM BR BKN003 BKN013 OVC075 24/24 A3006 RMK AO2 T02350235
KA08 161215Z AUTO 00000KT 4SM BR OVC003 24/24 A3007 RMK AO2 T02350235
KA08 161155Z AUTO 00000KT 4SM BR OVC003 23/23 A3005 RMK AO2 70056 T02320232 10235 20230
KA08 161135Z AUTO 14003KT 3SM BR OVC003 23/23 A3004 RMK AO2 T02300230
KA08 161115Z AUTO 15003KT 2SM BR BKN001 23/23 A3002 RMK AO2 T02300230
KA08 161055Z AUTO 00000KT 3SM BR SCT003 23/23 A3002 RMK AO2 T02310231
KA08 161035Z AUTO 4SM BR SCT003 SCT070 23/23 A3002 RMK AO2 T02330233
KA08 161015Z AUTO 00000KT 5SM BR SCT049 SCT070 23/23 A3002 RMK AO2 T02330233
KA08 160955Z AUTO 00000KT 5SM BR SCT005 23/23 A3002 RMK AO2 T02340234
KA08 160935Z AUTO 00000KT 5SM BR OVC005 24/24 A3003 RMK AO2 T02350235
KA08 160915Z AUTO 00000KT 7SM OVC005 23/23 A3003 RMK AO2 T02330233
KA08 160855Z AUTO 00000KT 7SM OVC005 23/23 A3003 RMK AO2 T02330233
KA08 160835Z AUTO 00000KT 7SM OVC005 23/23 A3003 RMK AO2 T02330233
KA08 160815Z AUTO 00000KT 10SM OVC005 23/23 A3003 RMK AO2 T02330233
KA08 160755Z AUTO 25004KT 10SM OVC005 23/23 A3003 RMK AO2 T02330233
KA08 160735Z AUTO 25004KT 10SM OVC005 24/24 A3002 RMK AO2 T02350235
KA08 160715Z AUTO 24003KT 10SM OVC005 23/23 A3002 RMK AO2 T02330233
KA08 160655Z AUTO 22005KT 10SM OVC007 24/24 A3001 RMK AO2 T02350235
KA08 160635Z AUTO 18003KT 10SM BKN007 24/24 A3001 RMK AO2 T02350235
KA08 160615Z AUTO 00000KT 7SM SCT007 24/24 A3002 RMK AO2 T02350235
KA08 160555Z AUTO 24003KT 7SM BKN007 24/24 A3002 RMK AO2 60039 T02350235 10251 20233 403480216
KA08 160535Z AUTO 00000KT 7SM BKN005 24/24 A3001 RMK AO2 T02350235
KA08 160515Z AUTO 00000KT 7SM OVC005 24/24 A3001 RMK AO2 T02350235
KA08 160455Z AUTO 00000KT 7SM BKN005 24/24 A3001 RMK AO2 T02360236
KA08 160435Z AUTO 00000KT 10SM OVC005 24/24 A3001 RMK AO2 T02370237
KA08 160415Z AUTO 27003KT 7SM BKN005 24/24 A3001 RMK AO2 T02370237
KA08 160355Z AUTO 00000KT 7SM OVC005 24/24 A3002 RMK AO2 T02400240
KA08 160335Z AUTO 00000KT 7SM OVC005 24/24 A3002 RMK AO2 T02400240
KA08 160315Z AUTO 00000KT 10SM BKN005 24/24 A3002 RMK AO2 T02400240
KA08 160255Z AUTO 00000KT 10SM BKN005 BKN011 24/24 A3003 RMK AO2 P0001 60039 T02400240
KA08 160235Z AUTO 10SM SCT005 SCT011 SCT085 24/24 A3004 RMK AO2 P0001 T02350235
KA08 160215Z AUTO 16004KT 10SM -RA SCT060 SCT075 SCT085 24/24 A3004 RMK AO2 P0001 T02350235
KA08 160155Z AUTO 16004KT 7SM -RA SCT019 BKN060 OVC085 24/24 A3004 RMK AO2 P0038 T02400240
KA08 160135Z AUTO 13008G14KT 120V180 1 1/2SM +RA BKN017 BKN031 OVC048 25/23 A3005 RMK AO2 VIS 1/2V5 P0029 T02460231
KA08 160115Z AUTO 00000KT 10SM SCT031 BKN048 25/25 A3005 RMK AO2 T02500245
KA08 160055Z AUTO 00000KT 10SM -DZ SCT050 BKN070 BKN110 25/24 A3005 RMK AO2 T02510243
KA08 160035Z AUTO 00000KT 10SM SCT055 SCT070 BKN110 25/25 A3004 RMK AO2 T02510247
KA08 160015Z AUTO 00000KT 10SM CLR 25/25 A3003 RMK AO2 T02500245
KA08 152355Z AUTO 00000KT 10SM SCT120 25/25 A3001 RMK AO2 60017 T02510246 10348 20251
KA08 152335Z AUTO 34005KT 10SM -RA BKN120 26/25 A3000 RMK AO2 T02600245